createdAt,value
2018-12-06T00:01:48.707Z,23.20
2018-12-06T00:06:33.477Z,23.43
2018-12-06T00:11:18.507Z,20.53
2018-12-06T00:16:03.291Z,24.43
2018-12-06T00:20:48.171Z,23.57
2018-12-06T00:25:32.965Z,22.63
2018-12-06T00:30:28.568Z,23.17
2018-12-06T00:35:13.321Z,22.63
2018-12-06T00:39:58.197Z,19.67
2018-12-06T00:44:42.957Z,21.30
2018-12-06T00:49:27.888Z,20.60
2018-12-06T00:54:12.597Z,20.47
2018-12-06T00:58:57.328Z,20.47
2018-12-06T01:03:42.144Z,21.60
2018-12-06T01:08:26.910Z,19.00
2018-12-06T01:13:11.703Z,19.23
2018-12-06T01:17:56.467Z,20.13
2018-12-06T01:22:41.209Z,24.73
2018-12-06T01:27:25.916Z,22.80
2018-12-06T01:32:10.623Z,23.03
2018-12-06T01:36:55.344Z,24.37
2018-12-06T01:41:40.162Z,20.83
2018-12-06T01:46:24.957Z,20.47
2018-12-06T01:51:09.761Z,20.80
2018-12-06T01:55:54.520Z,22.20
2018-12-06T02:00:39.272Z,24.53
2018-12-06T02:05:24.197Z,23.80
2018-12-06T02:10:09.189Z,20.40
2018-12-06T02:14:53.983Z,16.97
2018-12-06T02:19:38.771Z,16.80
2018-12-06T02:24:23.526Z,21.23
2018-12-06T02:29:08.354Z,19.93
2018-12-06T02:33:53.074Z,19.97
2018-12-06T02:38:37.842Z,22.07
2018-12-06T02:43:22.682Z,26.53
2018-12-06T02:48:07.540Z,28.47
2018-12-06T02:52:52.357Z,23.77
2018-12-06T02:57:37.105Z,20.67
2018-12-06T03:02:21.905Z,19.80
2018-12-06T03:07:06.679Z,17.23
2018-12-06T03:11:51.458Z,15.13
2018-12-06T03:16:36.211Z,16.00
2018-12-06T03:21:21.084Z,16.07
2018-12-06T03:26:05.891Z,15.23
2018-12-06T03:30:50.692Z,16.90
2018-12-06T03:35:35.742Z,17.13
2018-12-06T03:40:20.634Z,20.70
2018-12-06T03:45:05.807Z,19.13
2018-12-06T03:49:50.666Z,16.30
2018-12-06T03:54:35.475Z,17.40
2018-12-06T03:59:20.516Z,18.03
2018-12-06T04:04:05.404Z,18.83
2018-12-06T04:08:50.354Z,19.93
2018-12-06T04:13:35.205Z,20.53
2018-12-06T04:18:20.274Z,19.23
2018-12-06T04:23:05.200Z,18.37
2018-12-06T04:27:50.138Z,20.87
2018-12-06T04:32:34.989Z,19.03
2018-12-06T04:37:19.824Z,18.93
2018-12-06T04:42:04.696Z,43.53
2018-12-06T04:46:49.485Z,29.20
2018-12-06T04:51:34.270Z,31.40
2018-12-06T04:56:19.207Z,24.93
2018-12-06T05:01:03.996Z,29.30
2018-12-06T05:05:48.757Z,33.53
2018-12-06T05:10:33.448Z,30.90
2018-12-06T05:15:18.282Z,25.37
2018-12-06T05:20:03.095Z,23.97
2018-12-06T05:24:47.932Z,21.53
2018-12-06T05:29:32.728Z,22.33
2018-12-06T05:34:17.579Z,24.03
2018-12-06T05:39:02.388Z,21.57
2018-12-06T05:43:47.345Z,28.67
2018-12-06T05:48:32.212Z,28.73
2018-12-06T05:53:17.293Z,29.10
2018-12-06T05:58:02.106Z,31.23
2018-12-06T06:02:46.879Z,33.97
2018-12-06T06:07:31.619Z,35.07
2018-12-06T06:12:16.448Z,32.67
2018-12-06T06:17:01.252Z,34.97
2018-12-06T06:21:46.049Z,34.03
2018-12-06T06:26:30.956Z,39.40
2018-12-06T06:31:15.756Z,42.00
2018-12-06T06:36:00.603Z,101.10
2018-12-06T06:40:45.381Z,101.33
2018-12-06T06:45:30.186Z,47.63
2018-12-06T06:50:15.824Z,46.03
2018-12-06T06:55:00.581Z,48.03
2018-12-06T06:59:45.347Z,39.87
2018-12-06T07:04:30.071Z,41.63
2018-12-06T07:09:14.900Z,61.57
2018-12-06T07:13:59.837Z,53.10
2018-12-06T07:18:44.859Z,36.83
2018-12-06T07:23:29.637Z,26.93
2018-12-06T07:28:14.520Z,24.87
2018-12-06T07:32:59.322Z,20.23
2018-12-06T07:37:44.151Z,15.10
2018-12-06T07:42:28.908Z,14.40
2018-12-06T07:47:13.759Z,13.43
2018-12-06T07:51:58.645Z,20.93
2018-12-06T07:56:43.455Z,37.17
2018-12-06T08:01:28.420Z,38.03
2018-12-06T08:06:13.140Z,20.60
2018-12-06T08:10:58.009Z,14.60
2018-12-06T08:15:42.827Z,7.90
2018-12-06T08:20:27.626Z,7.03
2018-12-06T08:25:12.424Z,11.83
2018-12-06T08:29:57.259Z,32.10
2018-12-06T08:34:42.447Z,38.97
2018-12-06T08:39:27.336Z,35.20
2018-12-06T08:44:12.086Z,41.93
2018-12-06T08:49:02.967Z,41.60
2018-12-06T08:53:44.731Z,46.00
2018-12-06T08:58:29.527Z,42.40
2018-12-06T09:03:14.307Z,40.90
2018-12-06T09:07:59.261Z,41.93
2018-12-06T09:12:44.006Z,38.00
2018-12-06T09:17:28.899Z,44.37
2018-12-06T09:22:13.722Z,39.57
2018-12-06T09:26:59.164Z,40.07
2018-12-06T09:31:44.163Z,39.23
2018-12-06T09:36:28.931Z,29.63
2018-12-06T09:41:13.771Z,23.77
2018-12-06T09:45:58.520Z,13.70
2018-12-06T09:50:43.387Z,12.07
2018-12-06T09:55:28.160Z,21.60
2018-12-06T10:00:15.484Z,22.63
2018-12-06T10:05:00.235Z,12.63
2018-12-06T10:09:45.164Z,12.17
2018-12-06T10:14:30.014Z,13.77
2018-12-06T10:19:15.023Z,10.10
2018-12-06T10:23:59.827Z,21.40
2018-12-06T10:28:44.772Z,23.80
2018-12-06T10:33:29.681Z,23.07
2018-12-06T10:38:14.777Z,19.93
2018-12-06T10:42:59.701Z,14.10
2018-12-06T10:47:44.671Z,11.13
2018-12-06T10:52:29.581Z,6.67
2018-12-06T10:57:14.378Z,6.73
2018-12-06T11:02:07.046Z,9.00
2018-12-06T11:06:52.013Z,12.33
2018-12-06T11:11:36.849Z,16.87
2018-12-06T11:16:21.711Z,19.00
2018-12-06T11:21:06.771Z,15.77
2018-12-06T11:25:51.662Z,16.47
2018-12-06T11:30:36.626Z,16.63
2018-12-06T11:35:21.506Z,13.73
2018-12-06T11:40:07.340Z,15.07
2018-12-06T11:44:52.357Z,7.60
2018-12-06T11:49:37.288Z,5.27
2018-12-06T11:54:22.156Z,5.80
2018-12-06T11:59:07.096Z,4.70
2018-12-06T12:03:51.918Z,5.57
2018-12-06T12:08:36.727Z,5.73
2018-12-06T12:13:21.682Z,6.07
2018-12-06T12:18:06.541Z,5.70
2018-12-06T12:22:51.367Z,6.83
2018-12-06T12:27:36.207Z,8.23
2018-12-06T12:32:21.093Z,8.23
2018-12-06T12:37:06.185Z,6.80
2018-12-06T12:41:51.048Z,6.10
2018-12-06T12:46:35.922Z,5.90
2018-12-06T12:51:20.842Z,6.17
2018-12-06T12:56:05.899Z,4.97
2018-12-06T13:00:50.808Z,5.90
2018-12-06T13:05:35.896Z,5.80
2018-12-06T13:10:20.860Z,5.33
2018-12-06T13:15:06.301Z,5.60
2018-12-06T13:19:51.181Z,5.70
2018-12-06T13:24:36.074Z,6.10
2018-12-06T13:29:20.901Z,5.17
2018-12-06T13:34:05.922Z,5.83
2018-12-06T13:38:50.797Z,6.00
2018-12-06T13:43:35.748Z,7.67
2018-12-06T13:48:20.646Z,8.27
2018-12-06T13:53:05.600Z,10.53
2018-12-06T13:57:50.458Z,11.23
2018-12-06T14:02:35.516Z,11.10
2018-12-06T14:07:20.308Z,9.97
2018-12-06T14:12:05.265Z,9.33
2018-12-06T14:16:50.125Z,9.47
2018-12-06T14:21:34.920Z,9.93
2018-12-06T14:26:19.702Z,10.00
2018-12-06T14:31:04.568Z,9.63
2018-12-06T14:35:49.529Z,9.00
2018-12-06T14:40:34.331Z,9.93
2018-12-06T14:45:19.281Z,10.23
2018-12-06T14:50:04.546Z,11.70
2018-12-06T14:54:49.389Z,12.97
2018-12-06T14:59:34.253Z,11.77
2018-12-06T15:04:19.165Z,12.63
2018-12-06T15:09:06.027Z,12.00
2018-12-06T15:13:51.086Z,12.23
2018-12-06T15:18:35.959Z,11.10
2018-12-06T15:23:20.989Z,12.07
2018-12-06T15:28:05.799Z,12.33
2018-12-06T15:32:50.915Z,11.53
2018-12-06T15:37:35.978Z,12.57
2018-12-06T15:42:20.970Z,13.70
2018-12-06T15:47:05.858Z,14.00
2018-12-06T15:51:50.836Z,10.20
2018-12-06T15:56:35.942Z,11.20
2018-12-06T16:01:21.085Z,14.83
2018-12-06T16:06:06.426Z,16.63
2018-12-06T16:10:51.589Z,14.37
2018-12-06T16:15:36.483Z,13.27
2018-12-06T16:20:21.479Z,12.10
2018-12-06T16:25:07.353Z,17.83
2018-12-06T16:29:52.290Z,18.47
2018-12-06T16:34:37.366Z,10.77
2018-12-06T16:39:22.332Z,11.80
2018-12-06T16:44:07.350Z,15.97
2018-12-06T16:48:52.458Z,30.10
2018-12-06T16:53:37.456Z,25.07
2018-12-06T16:58:22.523Z,18.63
2018-12-06T17:03:07.590Z,20.27
2018-12-06T17:07:52.803Z,14.90
2018-12-06T17:12:38.237Z,19.30
2018-12-06T17:17:23.538Z,20.67
2018-12-06T17:22:08.681Z,24.43
2018-12-06T17:26:53.909Z,29.90
2018-12-06T17:31:38.807Z,21.23
2018-12-06T17:36:24.675Z,23.57
2018-12-06T17:41:09.876Z,20.37
2018-12-06T17:45:55.092Z,19.83
2018-12-06T17:50:40.971Z,17.97
2018-12-06T17:55:25.896Z,10.63
2018-12-06T18:00:11.811Z,9.33
2018-12-06T18:04:56.915Z,6.77
2018-12-06T18:09:41.882Z,8.80
2018-12-06T18:14:26.831Z,6.07
2018-12-06T18:19:11.712Z,5.97
2018-12-06T18:23:56.536Z,5.80
2018-12-06T18:28:41.596Z,5.57
2018-12-06T18:33:26.780Z,4.03
2018-12-06T18:38:11.729Z,3.57
2018-12-06T18:42:56.908Z,3.40
2018-12-06T18:47:42.009Z,3.83
2018-12-06T18:57:42.203Z,4.17
2018-12-06T19:02:27.444Z,1.33
2018-12-06T19:07:12.648Z,5.73
2018-12-06T19:11:57.641Z,4.03
2018-12-06T19:16:43.365Z,4.40
2018-12-06T19:21:28.915Z,6.00
2018-12-06T19:26:14.211Z,9.93
2018-12-06T19:30:59.449Z,11.63
2018-12-06T19:35:44.336Z,12.33
2018-12-06T19:40:29.698Z,9.80
2018-12-06T19:45:14.615Z,9.17
2018-12-06T19:49:59.863Z,7.00
2018-12-06T19:54:45.287Z,4.53
2018-12-06T19:59:30.843Z,4.30
2018-12-06T20:04:15.817Z,5.70
2018-12-06T20:09:00.726Z,5.17
2018-12-06T20:13:45.685Z,4.20
2018-12-06T20:18:31.247Z,3.90
2018-12-06T20:23:16.567Z,4.40
2018-12-06T20:28:02.223Z,3.93
2018-12-06T20:32:47.325Z,3.47
2018-12-06T20:38:06.978Z,2.90
2018-12-06T20:42:52.120Z,3.13
2018-12-06T20:47:37.086Z,2.77
2018-12-06T20:52:22.339Z,2.80
2018-12-06T20:57:07.256Z,3.23
2018-12-06T21:01:52.133Z,3.60
2018-12-06T21:06:37.138Z,2.07
2018-12-06T21:11:22.051Z,1.83
2018-12-06T21:16:07.053Z,2.10
2018-12-06T21:20:52.022Z,1.77
2018-12-06T21:25:37.096Z,1.97
2018-12-06T21:30:22.012Z,2.10
2018-12-06T21:35:08.335Z,2.27
2018-12-06T21:39:53.347Z,2.77
2018-12-06T21:44:38.322Z,1.90
2018-12-06T21:49:24.102Z,1.70
2018-12-06T21:54:09.138Z,1.40
2018-12-06T21:58:54.044Z,1.20
2018-12-06T22:03:38.976Z,1.40
2018-12-06T22:08:24.524Z,1.20
2018-12-06T22:13:09.295Z,1.40
2018-12-06T22:17:54.159Z,1.30
2018-12-06T22:22:38.963Z,1.07
2018-12-06T22:27:23.751Z,1.60
2018-12-06T22:32:08.704Z,1.50
2018-12-06T22:36:53.548Z,1.47
2018-12-06T22:41:38.273Z,1.63
2018-12-06T22:46:23.076Z,1.10
2018-12-06T22:51:07.781Z,1.40
2018-12-06T22:55:52.643Z,1.30
2018-12-06T23:00:37.616Z,1.10
2018-12-06T23:05:22.463Z,0.83
2018-12-06T23:10:07.894Z,0.97
2018-12-06T23:14:52.819Z,1.10
2018-12-06T23:19:37.693Z,1.37
2018-12-06T23:24:22.724Z,1.40
2018-12-06T23:29:07.554Z,0.90
2018-12-06T23:33:52.412Z,1.10
2018-12-06T23:38:37.271Z,1.27
2018-12-06T23:43:22.165Z,0.87
2018-12-06T23:48:07.144Z,1.13
2018-12-06T23:52:52.110Z,1.00
2018-12-06T23:57:37.216Z,1.13
